MV Scf Alpine — A8XQ2 — position and weather

sailwx.info

Track history (hours):
 
Tides and Currents Weather Stations Pressure Air Temp Water Temp Dewpoint Dewpoint Depression Visibility Wind Speed Wind Dir Waves Ship Positions

MV Scf Alpine

Last reported at 2014-Jul-26 12:33 UTC. Time now 2014-Jul-31 07:25 UTC.
Position N 01°11' E 103°49'.

Length 229 m; draft 8.2 m.

Type: Tanker. MMSI: 636014957.

Date/timePositionNaut miles runAvg speedWind from/ knotsBaromVisibWave heightAir tempDewpointWater temp
2014-Jul-26 12:33N 01°11' E 103°49'1515.6
2014-Jul-26 11:34N 01°16' E 104°04'  
2014-Jul-19 06:07N 01°15' E 104°05'713.1
2014-Jul-19 05:33N 01°14' E 103°58'10 9.7
2014-Jul-19 04:33N 01°13' E 103°48'2 0.0
2014-Jul-17 15:28N 01°12' E 103°50'8 8.4
2014-Jul-17 14:33N 01°17' E 103°56'1 1.0
2014-Jul-17 13:33N 01°17' E 103°57'0 0.0
2014-Jul-17 12:06N 01°17' E 103°57'0 0.0
2014-Jul-17 11:33N 01°17' E 103°57'0 0.0
2014-Jul-17 10:30N 01°17' E 103°57'0 0.0
2014-Jul-17 09:30N 01°17' E 103°57'0 0.0
2014-Jul-17 08:24N 01°17' E 103°57'0 0.0
2014-Jul-17 06:33N 01°17' E 103°57'0 0.0
2014-Jul-17 05:18N 01°17' E 103°57'0 0.0
2014-Jul-17 04:33N 01°17' E 103°57'0 0.1
2014-Jul-17 03:33N 01°17' E 103°57'0 0.0
2014-Jul-17 02:33N 01°17' E 103°57'0 0.0
2014-Jul-17 01:33N 01°17' E 103°57'0 0.0
2014-Jul-17 00:33N 01°17' E 103°57'0 0.0
2014-Jul-16 23:33N 01°17' E 103°57'0 0.0
2014-Jul-16 22:33N 01°17' E 103°57'0 0.0
2014-Jul-16 21:33N 01°17' E 103°57'0 0.0
2014-Jul-16 20:33N 01°17' E 103°57'0 0.1
2014-Jul-16 19:30N 01°17' E 103°57'0 0.2
2014-Jul-16 18:33N 01°17' E 103°57'0 0.0
2014-Jul-16 17:30N 01°17' E 103°57'0 0.0
2014-Jul-16 16:33N 01°17' E 103°57'0 0.0
2014-Jul-16 15:30N 01°17' E 103°57'0 0.0
2014-Jul-16 14:33N 01°17' E 103°57'0 0.0
2014-Jul-16 13:33N 01°17' E 103°57'  
Track history (hours):
 
Tides and Currents Weather Stations Pressure Air Temp Water Temp Dewpoint Dewpoint Depression Visibility Wind Speed Wind Dir Waves Ship Positions

MV Scf Alpine

Last reported at 2014-Jul-26 12:33 UTC. Time now 2014-Jul-31 07:25 UTC.
Position N 01°11' E 103°49'.

Length 229 m; draft 8.2 m.

Type: Tanker. MMSI: 636014957.

Date/timePositionNaut miles runAvg speedWind from/ knotsBaromVisibWave heightAir tempDewpointWater temp
2014-Jul-26 12:33N 01°11' E 103°49'1515.6
2014-Jul-26 11:34N 01°16' E 104°04'  
2014-Jul-19 06:07N 01°15' E 104°05'713.1
2014-Jul-19 05:33N 01°14' E 103°58'10 9.7
2014-Jul-19 04:33N 01°13' E 103°48'2 0.0
2014-Jul-17 15:28N 01°12' E 103°50'8 8.4
2014-Jul-17 14:33N 01°17' E 103°56'1 1.0
2014-Jul-17 13:33N 01°17' E 103°57'0 0.0
2014-Jul-17 12:06N 01°17' E 103°57'0 0.0
2014-Jul-17 11:33N 01°17' E 103°57'0 0.0
2014-Jul-17 10:30N 01°17' E 103°57'0 0.0
2014-Jul-17 09:30N 01°17' E 103°57'0 0.0
2014-Jul-17 08:24N 01°17' E 103°57'0 0.0
2014-Jul-17 06:33N 01°17' E 103°57'0 0.0
2014-Jul-17 05:18N 01°17' E 103°57'0 0.0
2014-Jul-17 04:33N 01°17' E 103°57'0 0.1
2014-Jul-17 03:33N 01°17' E 103°57'0 0.0
2014-Jul-17 02:33N 01°17' E 103°57'0 0.0
2014-Jul-17 01:33N 01°17' E 103°57'0 0.0
2014-Jul-17 00:33N 01°17' E 103°57'0 0.0
2014-Jul-16 23:33N 01°17' E 103°57'0 0.0
2014-Jul-16 22:33N 01°17' E 103°57'0 0.0
2014-Jul-16 21:33N 01°17' E 103°57'0 0.0
2014-Jul-16 20:33N 01°17' E 103°57'0 0.1
2014-Jul-16 19:30N 01°17' E 103°57'0 0.2
2014-Jul-16 18:33N 01°17' E 103°57'0 0.0
2014-Jul-16 17:30N 01°17' E 103°57'0 0.0
2014-Jul-16 16:33N 01°17' E 103°57'0 0.0
2014-Jul-16 15:30N 01°17' E 103°57'0 0.0
2014-Jul-16 14:33N 01°17' E 103°57'0 0.0
2014-Jul-16 13:33N 01°17' E 103°57'  

Dump ship's entire track history